Time;durP1;ratioP1;P1;durP2;ratioP2;P2;SDS_P1;SDS_P2;PMS_P1;PMS_P2;Temp;Humidity;BMP_temperature;BMP_pressure;BME280_temperature;BME280_humidity;BME280_pressure;Samples;Min_cycle;Max_cycle;Signal;HPM_P1;HPM_P2
2022/11/01 00:01:37;;;;;;;22.00;11.30;;;;;;;-141.97;60.29;47522.91;5075397;28;20188;-80
2022/11/01 00:04:03;;;;;;;29.33;12.37;;;;;;;-141.97;59.95;47553.69;5075345;28;20165;-80
2022/11/01 00:06:28;;;;;;;28.10;12.40;;;;;;;-141.97;59.89;47524.84;5057621;28;20169;-80
2022/11/01 00:08:53;;;;;;;32.70;12.50;;;;;;;-141.97;60.35;47536.38;5075813;28;20248;-80
2022/11/01 00:11:19;;;;;;;27.40;12.83;;;;;;;-141.97;60.55;47521.00;5076207;28;20168;-80
2022/11/01 00:13:46;;;;;;;25.97;12.67;;;;;;;-141.97;60.73;47492.16;5075470;28;20582;-81
2022/11/01 00:16:13;;;;;;;30.70;13.87;;;;;;;-141.97;60.22;47453.72;5075579;28;20160;-81
2022/11/01 00:18:39;;;;;;;25.13;12.63;;;;;;;-141.97;60.58;47526.75;5075718;28;20164;-80
2022/11/01 00:21:04;;;;;;;29.93;11.47;;;;;;;-141.97;60.55;47634.41;5075661;28;20589;-81
2022/11/01 00:23:30;;;;;;;28.53;11.80;;;;;;;-141.97;60.49;47522.91;5075557;28;20171;-80
2022/11/01 00:25:59;;;;;;;27.07;11.20;;;;;;;-141.97;60.47;47532.53;5075568;28;20187;-81
2022/11/01 00:28:25;;;;;;;24.37;11.30;;;;;;;-141.97;60.58;47507.53;5075276;28;20152;-81
2022/11/01 00:30:55;;;;;;;22.93;11.47;;;;;;;-141.97;60.68;47492.16;5075548;28;20199;-80
2022/11/01 00:33:22;;;;;;;24.70;11.23;;;;;;;-141.97;60.85;47521.00;5075417;28;20165;-79
2022/11/01 00:35:48;;;;;;;20.57;10.90;;;;;;;-141.97;60.83;47511.38;5059129;28;20255;-79
2022/11/01 00:38:17;;;;;;;24.27;10.27;;;;;;;-141.97;60.77;47521.00;5054962;28;20244;-80
2022/11/01 00:40:43;;;;;;;23.50;10.83;;;;;;;-141.97;60.99;47563.28;5054790;28;20193;-80
2022/11/01 00:43:09;;;;;;;23.17;10.67;;;;;;;-141.97;61.50;47546.00;5054887;28;20292;-80
2022/11/01 00:45:34;;;;;;;23.07;10.63;;;;;;;-141.97;62.17;47497.94;5054840;28;20605;-80
2022/11/01 00:47:59;;;;;;;25.63;11.00;;;;;;;-141.97;62.35;47549.84;5054752;28;20715;-80
2022/11/01 00:50:25;;;;;;;30.53;11.07;;;;;;;-141.97;62.17;47522.91;5054655;28;20161;-80
2022/11/01 00:52:50;;;;;;;22.13;11.20;;;;;;;-141.97;62.66;47501.78;5055008;28;20162;-80
2022/11/01 00:55:16;;;;;;;27.00;10.60;;;;;;;-141.97;62.33;47534.44;5054809;28;20188;-80
2022/11/01 00:57:43;;;;;;;21.37;10.87;;;;;;;-141.97;62.18;47563.28;5054620;28;20191;-81
2022/11/01 01:00:10;;;;;;;21.60;10.40;;;;;;;-141.97;62.03;47519.06;5054664;28;20185;-80
2022/11/01 01:02:36;;;;;;;22.17;11.10;;;;;;;-141.97;62.68;47569.06;5054377;28;20191;-80
2022/11/01 01:05:02;;;;;;;26.20;11.17;;;;;;;-141.97;63.30;47519.06;5054442;28;20183;-80
2022/11/01 01:07:28;;;;;;;23.43;10.93;;;;;;;-141.97;63.32;47521.00;5054421;28;20161;-81
2022/11/01 01:09:53;;;;;;;21.87;10.47;;;;;;;-141.97;63.27;47532.53;5054436;28;20522;-81
2022/11/01 01:12:18;;;;;;;20.30;11.17;;;;;;;-141.97;62.91;47530.59;5054245;28;20157;-81
2022/11/01 01:14:44;;;;;;;25.30;11.63;;;;;;;-141.97;62.81;47624.78;5054632;28;20172;-80
2022/11/01 01:17:09;;;;;;;26.17;10.57;;;;;;;-141.97;62.83;47642.09;5055207;28;20158;-81
2022/11/01 01:19:34;;;;;;;25.47;10.83;;;;;;;-141.97;62.69;47530.59;5055122;28;20714;-81
2022/11/01 01:22:00;;;;;;;19.60;9.50;;;;;;;-141.97;62.49;47546.00;5054479;28;20181;-80
2022/11/01 01:24:26;;;;;;;20.23;10.10;;;;;;;-141.97;62.04;47534.44;5054552;28;20276;-81
2022/11/01 01:26:52;;;;;;;21.27;10.43;;;;;;;-141.97;62.34;47515.22;5054180;28;20170;-81
2022/11/01 01:29:17;;;;;;;23.17;9.90;;;;;;;-141.97;62.08;47524.84;5036489;28;20173;-81
2022/11/01 01:31:42;;;;;;;19.13;9.97;;;;;;;-141.97;62.03;47490.25;5035994;28;20170;-79
2022/11/01 01:34:08;;;;;;;20.63;10.00;;;;;;;-141.97;62.66;47530.59;5053433;28;20293;-78
2022/11/01 01:36:33;;;;;;;21.47;9.90;;;;;;;-141.97;62.55;47519.06;5053804;28;20154;-81
2022/11/01 01:38:59;;;;;;;24.00;11.13;;;;;;;-141.97;63.00;47544.06;5053904;28;20211;-81
2022/11/01 01:45:03;;;;;;;25.40;10.83;;;;;;;-141.97;63.57;47538.28;5053706;28;20172;-81
2022/11/01 01:47:32;;;;;;;21.57;10.90;;;;;;;-141.97;63.58;47549.84;4973260;28;20182;-80
2022/11/01 01:50:12;;;;;;;22.87;12.10;;;;;;;-141.97;64.43;47561.38;4973254;28;20219;-80
2022/11/01 01:52:47;;;;;;;24.37;11.67;;;;;;;-141.97;64.46;47542.16;4972562;28;20172;-81
2022/11/01 01:55:15;;;;;;;21.67;11.40;;;;;;;-141.97;64.74;47567.13;4972532;28;20237;-81
2022/11/01 01:57:42;;;;;;;21.47;11.87;;;;;;;-141.97;64.59;47499.84;4972746;28;20172;-80
2022/11/01 02:00:08;;;;;;;22.23;10.73;;;;;;;-141.97;64.54;47517.16;4972437;28;20680;-80
2022/11/01 02:02:33;;;;;;;25.40;12.73;;;;;;;-141.97;64.49;47530.59;4972706;28;20716;-81
2022/11/01 02:05:09;;;;;;;29.53;13.87;;;;;;;-141.97;64.08;47553.69;4973214;28;20196;-80
2022/11/01 02:07:34;;;;;;;33.93;13.93;;;;;;;-141.97;63.51;47499.84;4973290;28;20171;-80
2022/11/01 02:10:00;;;;;;;34.30;14.73;;;;;;;-141.97;63.20;47563.28;4973186;28;20175;-81
2022/11/01 02:12:32;;;;;;;31.97;14.53;;;;;;;-141.97;63.26;47538.28;4972852;28;20202;-80
2022/11/01 02:14:58;;;;;;;30.27;13.97;;;;;;;-141.97;63.27;47544.06;4956856;28;20319;-80
2022/11/01 02:17:34;;;;;;;36.83;14.47;;;;;;;-141.97;63.27;47542.16;4972866;28;20235;-81
2022/11/01 02:20:46;;;;;;;29.00;13.77;;;;;;;-141.97;64.33;47511.38;4972803;28;20199;-80
2022/11/01 02:23:35;;;;;;;25.67;11.90;;;;;;;-141.97;64.14;47530.59;4972295;28;20232;-81
2022/11/01 02:26:21;;;;;;;24.27;12.00;;;;;;;-141.97;64.36;47507.53;4978330;28;20198;-81
2022/11/01 02:29:08;;;;;;;23.83;11.40;;;;;;;-141.97;64.81;47572.91;4991734;28;20365;-81
2022/11/01 02:31:36;;;;;;;22.27;11.83;;;;;;;-141.97;64.69;47484.47;4991671;28;20167;-81
2022/11/01 02:34:08;;;;;;;21.90;11.80;;;;;;;-141.97;64.63;47540.22;4975309;28;20247;-81
2022/11/01 02:36:42;;;;;;;22.03;12.10;;;;;;;-141.97;64.92;47536.38;4975864;28;20222;-81
2022/11/01 02:39:21;;;;;;;24.67;12.83;;;;;;;-141.97;64.85;47542.16;4991477;28;20233;-81
2022/11/01 02:42:13;;;;;;;28.50;13.97;;;;;;;-141.97;64.72;47522.91;4992056;28;20171;-81
2022/11/01 02:44:44;;;;;;;30.03;15.03;;;;;;;-141.97;64.70;47557.53;4991591;28;20177;-80
2022/11/01 02:47:11;;;;;;;51.90;24.07;;;;;;;-141.97;64.65;47538.28;4992992;28;20290;-81
2022/11/01 02:49:42;;;;;;;46.27;22.47;;;;;;;-141.97;65.39;47672.84;4995580;28;20163;-81
2022/11/01 02:52:12;;;;;;;41.67;21.50;;;;;;;-141.97;65.27;47519.06;4995568;28;20254;-81
2022/11/01 02:54:42;;;;;;;35.93;19.30;;;;;;;-141.97;65.82;47515.22;4995413;28;20175;-81
2022/11/01 02:57:38;;;;;;;24.93;13.07;;;;;;;-141.97;65.65;47559.44;4995755;28;20279;-81
2022/11/01 03:00:21;;;;;;;27.77;13.13;;;;;;;-141.97;65.73;47551.75;4983593;28;20215;-80
2022/11/01 03:02:56;;;;;;;27.03;14.40;;;;;;;-141.97;65.74;47580.59;4978966;28;20190;-81
2022/11/01 03:05:24;;;;;;;25.60;12.77;;;;;;;-141.97;66.37;47524.84;4995322;28;20277;-81
2022/11/01 03:08:00;;;;;;;28.40;12.77;;;;;;;-141.97;66.18;47546.00;4995288;28;20171;-81
2022/11/01 03:10:41;;;;;;;27.93;12.93;;;;;;;-141.97;66.57;47515.22;4995161;28;20254;-80
2022/11/01 03:13:45;;;;;;;25.27;12.60;;;;;;;-141.97;66.71;47542.16;4995350;28;20206;-80
2022/11/01 03:16:27;;;;;;;26.57;12.47;;;;;;;-141.97;67.37;47572.91;4940140;29;20287;-81
2022/11/01 03:19:35;;;;;;;23.33;11.73;;;;;;;-141.97;67.35;47526.75;4956024;29;20533;-80
2022/11/01 03:22:12;;;;;;;21.87;12.00;;;;;;;-141.97;67.91;47497.94;4956219;29;20184;-79
2022/11/01 03:25:41;;;;;;;25.70;12.53;;;;;;;-141.97;67.61;47542.16;4956405;29;20207;-80
2022/11/01 03:28:21;;;;;;;28.37;15.57;;;;;;;-141.97;67.96;47509.47;4937326;29;20188;-80
2022/11/01 03:30:56;;;;;;;26.83;14.03;;;;;;;-141.97;68.50;47546.00;4936889;29;20678;-80
2022/11/01 03:33:24;;;;;;;23.30;12.60;;;;;;;-141.97;68.86;47549.84;4936907;29;20224;-80
2022/11/01 03:35:53;;;;;;;22.90;11.47;;;;;;;-141.97;68.59;47540.22;4936570;29;20232;-80
2022/11/01 03:38:23;;;;;;;26.60;11.73;;;;;;;-141.97;68.64;47517.16;4955536;29;20195;-78
2022/11/01 03:40:54;;;;;;;22.03;11.30;;;;;;;-141.97;68.25;47536.38;4956670;29;20220;-80
2022/11/01 03:43:23;;;;;;;23.23;12.00;;;;;;;-141.97;68.27;47697.84;4956140;29;20179;-80
2022/11/01 03:45:48;;;;;;;22.30;11.20;;;;;;;-141.97;68.49;47569.06;4955867;29;20189;-80
2022/11/01 03:48:14;;;;;;;24.87;11.10;;;;;;;-141.97;68.35;47521.00;4956022;29;20179;-80
2022/11/01 03:50:46;;;;;;;21.07;10.50;;;;;;;-141.97;68.76;47561.38;4956171;29;20196;-81
2022/11/01 03:53:11;;;;;;;28.17;11.67;;;;;;;-141.97;69.56;47519.06;4956163;29;20343;-81
2022/11/01 03:55:36;;;;;;;42.73;17.93;;;;;;;-141.97;70.37;47553.69;4956260;29;20259;-78
2022/11/01 03:58:02;;;;;;;110.17;36.87;;;;;;;-141.97;70.50;47557.53;4955718;28;20196;-79
2022/11/01 04:00:29;;;;;;;64.23;26.07;;;;;;;-141.97;71.02;47519.06;4955753;29;20201;-79
2022/11/01 04:02:56;;;;;;;25.20;12.83;;;;;;;-141.97;70.91;47565.22;4955549;29;20172;-81
2022/11/01 04:05:23;;;;;;;25.20;12.13;;;;;;;-141.97;70.68;47501.78;5033761;28;20198;-80
2022/11/01 04:07:50;;;;;;;22.67;10.13;;;;;;;-141.97;70.07;47555.59;5035630;28;20197;-81
2022/11/01 04:10:16;;;;;;;20.83;10.40;;;;;;;-141.97;70.74;47561.38;5034836;28;20193;-81
2022/11/01 04:12:45;;;;;;;21.23;9.70;;;;;;;-141.97;70.60;47542.16;5034494;28;20709;-80
2022/11/01 04:20:49;;;;;;;22.10;9.53;;;;;;;-141.97;70.13;47524.84;5017228;28;20224;-80
2022/11/01 04:23:15;;;;;;;21.33;9.80;;;;;;;-141.97;70.12;47555.59;5018146;28;20186;-80
2022/11/01 04:25:40;;;;;;;21.90;9.67;;;;;;;-141.97;70.18;47576.75;5013647;28;20190;-80
2022/11/01 04:28:06;;;;;;;23.10;11.67;;;;;;;-141.97;70.28;47511.38;5026240;28;20212;-81
2022/11/01 04:30:31;;;;;;;23.23;11.03;;;;;;;-141.97;70.63;47530.59;5033266;28;20265;-81
2022/11/01 04:32:56;;;;;;;23.27;10.83;;;;;;;-141.97;70.35;47574.81;5027379;28;20217;-81
2022/11/01 04:35:22;;;;;;;19.80;9.80;;;;;;;-141.97;70.47;47561.38;5043586;28;20232;-81
2022/11/01 04:37:54;;;;;;;22.00;10.03;;;;;;;-141.97;70.51;47524.84;5052793;28;20185;-81
2022/11/01 04:40:20;;;;;;;32.10;10.47;;;;;;;-141.97;70.02;47532.53;5066023;28;20204;-80
2022/11/01 04:42:45;;;;;;;22.70;10.23;;;;;;;-141.97;70.04;47534.44;5070333;28;20188;-81
2022/11/01 04:45:11;;;;;;;46.13;22.83;;;;;;;-141.97;70.44;47546.00;5052938;28;20573;-81
2022/11/01 04:47:36;;;;;;;24.47;12.37;;;;;;;-141.97;69.75;47572.91;5053160;28;20185;-81
2022/11/01 04:50:01;;;;;;;24.60;10.43;;;;;;;-141.97;69.69;47538.28;5052865;28;20177;-80
2022/11/01 04:52:27;;;;;;;22.50;10.10;;;;;;;-141.97;69.57;47547.91;5052040;28;20169;-80
2022/11/01 04:54:52;;;;;;;18.87;9.93;;;;;;;-141.97;70.21;47536.38;5052547;28;20646;-81
2022/11/01 04:57:23;;;;;;;21.30;10.17;;;;;;;-141.97;70.10;47488.31;5034306;28;20272;-80
2022/11/01 04:59:53;;;;;;;21.40;9.90;;;;;;;-141.97;70.18;47557.53;5052229;28;20205;-81
2022/11/01 05:02:22;;;;;;;20.00;10.83;;;;;;;-141.97;70.03;47561.38;5052716;28;20184;-80
2022/11/01 05:04:49;;;;;;;21.57;10.70;;;;;;;-141.97;70.01;47563.28;5052449;28;20185;-81
2022/11/01 05:07:15;;;;;;;21.10;10.97;;;;;;;-141.97;70.32;47546.00;5052755;28;20232;-81
2022/11/01 05:09:41;;;;;;;22.77;10.67;;;;;;;-141.97;70.11;47572.91;5051130;28;20173;-81
2022/11/01 05:12:07;;;;;;;22.13;11.60;;;;;;;-141.97;70.43;47542.16;5052733;28;20173;-81
2022/11/01 05:14:33;;;;;;;22.83;10.90;;;;;;;-141.97;70.13;47572.91;5051879;28;20181;-80
2022/11/01 05:16:59;;;;;;;18.80;10.10;;;;;;;-141.97;70.03;47569.06;5066697;28;20671;-81
2022/11/01 05:19:24;;;;;;;19.87;10.10;;;;;;;-141.97;70.51;47561.38;5072505;28;20279;-80
2022/11/01 05:21:50;;;;;;;22.47;10.50;;;;;;;-141.97;70.13;47563.28;5062802;28;20216;-81
2022/11/01 05:24:16;;;;;;;18.13;9.23;;;;;;;-141.97;69.78;47546.00;5062051;28;20173;-80
2022/11/01 05:26:42;;;;;;;21.97;10.07;;;;;;;-141.97;69.95;47576.75;5052381;28;20267;-82
2022/11/01 05:29:08;;;;;;;25.37;10.23;;;;;;;-141.97;69.89;47567.13;5052036;28;20187;-81
2022/11/01 05:31:33;;;;;;;19.87;9.80;;;;;;;-141.97;69.61;47569.06;5052164;28;20232;-80
2022/11/01 05:33:59;;;;;;;22.80;10.47;;;;;;;-141.97;69.85;47553.69;5051261;28;20553;-81
2022/11/01 05:36:24;;;;;;;23.23;10.83;;;;;;;-141.97;69.68;47565.22;5051913;28;20200;-80
2022/11/01 05:38:50;;;;;;;20.87;9.70;;;;;;;-141.97;69.47;47576.75;5034331;28;20966;-80
2022/11/01 05:41:15;;;;;;;22.63;9.83;;;;;;;-141.97;69.00;47549.84;5062609;28;20193;-82
2022/11/01 05:43:40;;;;;;;24.03;10.40;;;;;;;-141.97;68.96;47578.66;5069112;28;20202;-81
2022/11/01 05:46:06;;;;;;;19.63;9.93;;;;;;;-141.97;68.99;47565.22;5051739;28;20618;-82
2022/11/01 05:48:33;;;;;;;24.00;9.83;;;;;;;-141.97;68.85;47555.59;5052162;28;20592;-83
2022/11/01 05:50:59;;;;;;;18.83;9.87;;;;;;;-141.97;68.51;47549.84;5051715;28;20176;-82
2022/11/01 05:53:24;;;;;;;17.23;9.47;;;;;;;-141.97;68.29;47565.22;5051829;28;20177;-82
2022/11/01 05:55:49;;;;;;;19.53;10.07;;;;;;;-141.97;68.50;47565.22;5051814;28;20294;-82
2022/11/01 05:58:15;;;;;;;19.43;11.37;;;;;;;-141.97;68.44;47576.75;5052072;28;20173;-81
2022/11/01 06:00:40;;;;;;;21.50;11.23;;;;;;;-141.97;68.68;47519.06;5052166;28;20231;-82
2022/11/01 06:03:06;;;;;;;20.77;10.83;;;;;;;-141.97;67.69;47534.44;5055234;28;20187;-81
2022/11/01 06:05:32;;;;;;;18.00;9.00;;;;;;;-141.97;66.97;47576.75;5052067;28;20216;-82
2022/11/01 06:08:00;;;;;;;22.37;10.23;;;;;;;-141.97;66.89;47576.75;5033925;28;20181;-81
2022/11/01 06:10:26;;;;;;;25.63;11.43;;;;;;;-141.97;66.65;47534.44;5052299;28;20203;-81
2022/11/01 06:12:52;;;;;;;24.77;11.27;;;;;;;-141.97;66.31;47503.69;5052737;28;20238;-82
2022/11/01 06:15:17;;;;;;;21.63;10.97;;;;;;;-141.97;65.40;47542.16;5052505;28;20185;-80
2022/11/01 06:17:43;;;;;;;23.47;12.23;;;;;;;-141.97;64.69;47524.84;5073201;28;20183;-81
2022/11/01 06:20:08;;;;;;;32.10;16.67;;;;;;;-141.97;64.00;47549.84;5074885;28;20207;-81
2022/11/01 06:22:37;;;;;;;29.97;13.53;;;;;;;-141.97;64.33;47588.28;5062378;28;20243;-82
2022/11/01 06:25:04;;;;;;;27.97;14.60;;;;;;;-141.97;63.82;47544.06;5063044;28;20239;-82
2022/11/01 06:27:30;;;;;;;38.57;23.50;;;;;;;-141.97;62.32;47538.28;5051187;28;20316;-82
2022/11/01 06:29:56;;;;;;;24.17;12.87;;;;;;;-141.97;61.97;47570.97;5033630;28;20204;-81
2022/11/01 06:32:21;;;;;;;24.40;15.17;;;;;;;-141.97;60.95;47572.91;5051542;28;20203;-82
2022/11/01 06:34:46;;;;;;;22.73;11.17;;;;;;;-141.97;60.61;47549.84;5050524;28;20227;-80
2022/11/01 06:37:12;;;;;;;30.07;12.83;;;;;;;-141.97;60.04;47538.28;5051299;28;20235;-81
2022/11/01 06:39:37;;;;;;;28.30;13.17;;;;;;;-141.97;59.69;47557.53;5051243;28;20205;-82
2022/11/01 06:42:03;;;;;;;25.40;11.30;;;;;;;-141.97;58.88;47584.44;5051759;28;20180;-81
2022/11/01 06:44:28;;;;;;;22.03;11.60;;;;;;;-141.97;58.09;47449.88;5052142;28;20177;-80
2022/11/01 06:46:54;;;;;;;21.47;12.50;;;;;;;-141.97;57.64;47501.78;5051566;28;20209;-81
2022/11/01 06:49:20;;;;;;;28.57;13.60;;;;;;;-141.97;57.40;47536.38;5052873;28;20192;-82
2022/11/01 06:51:46;;;;;;;22.33;12.03;;;;;;;-141.97;56.53;47542.16;5051120;28;20181;-82
2022/11/01 06:54:11;;;;;;;21.30;12.13;;;;;;;-141.97;55.97;47536.38;5051244;28;20248;-83
2022/11/01 06:56:37;;;;;;;20.47;10.60;;;;;;;-141.97;55.58;47446.03;5051349;28;20181;-82
2022/11/01 06:59:03;;;;;;;16.27;10.00;;;;;;;-141.97;54.98;47526.75;5042333;28;20271;-82
2022/11/01 07:01:28;;;;;;;23.00;12.80;;;;;;;-141.97;54.77;47519.06;5071743;28;20223;-82
2022/11/01 07:03:53;;;;;;;21.97;11.80;;;;;;;-141.97;53.28;47532.53;5070282;28;20442;-84
2022/11/01 07:06:19;;;;;;;19.27;11.70;;;;;;;-141.97;52.69;47451.81;5071788;28;20287;-81
2022/11/01 07:08:45;;;;;;;22.17;11.53;;;;;;;-141.97;52.08;47549.84;5065611;28;20959;-82
2022/11/01 07:11:10;;;;;;;19.17;11.53;;;;;;;-141.97;51.22;47511.38;5050044;28;20201;-83
2022/11/01 07:13:37;;;;;;;23.07;11.60;;;;;;;-141.97;50.34;47476.78;5051206;28;20633;-82
2022/11/01 07:16:04;;;;;;;20.97;11.03;;;;;;;-141.97;49.42;47544.06;5057876;28;20180;-83
2022/11/01 07:18:30;;;;;;;20.43;11.30;;;;;;;-141.97;48.79;47526.75;5069132;28;20717;-81
2022/11/01 07:20:55;;;;;;;21.60;11.43;;;;;;;-141.97;48.28;47517.16;5051807;28;20205;-80
2022/11/01 07:23:21;;;;;;;20.20;11.13;;;;;;;-141.97;47.97;47519.06;5043243;28;20236;-82
2022/11/01 07:25:50;;;;;;;20.20;10.60;;;;;;;-141.97;47.78;47505.63;5051232;28;20523;-81
2022/11/01 07:28:16;;;;;;;21.00;11.47;;;;;;;-141.97;47.11;47546.00;5050238;28;20190;-79
2022/11/01 07:30:41;;;;;;;19.57;10.33;;;;;;;-141.97;46.44;47524.84;5050322;28;20250;-81
2022/11/01 07:33:07;;;;;;;22.60;10.50;;;;;;;-141.97;45.40;47515.22;5051646;28;20181;-79
2022/11/01 07:35:34;;;;;;;21.80;11.17;;;;;;;-141.97;45.06;47503.69;5052847;28;20232;-81
2022/11/01 07:38:00;;;;;;;17.50;9.83;;;;;;;-141.97;45.87;47465.25;5054857;28;20209;-81
2022/11/01 07:40:27;;;;;;;25.50;10.53;;;;;;;-141.97;45.53;47499.84;5053251;28;20254;-80
2022/11/01 07:42:58;;;;;;;12.17;6.50;;;;;;;-141.97;44.67;47496.00;5053749;28;20480;-78
2022/11/01 07:45:26;;;;;;;12.37;6.83;;;;;;;-141.97;44.47;47486.41;5053077;28;20243;-82
2022/11/01 07:47:52;;;;;;;12.13;6.60;;;;;;;-141.97;44.68;47532.53;5053007;28;20186;-79
2022/11/01 07:50:18;;;;;;;15.60;7.67;;;;;;;-141.97;44.49;47647.84;5035945;28;20185;-79
2022/11/01 07:52:44;;;;;;;20.10;10.17;;;;;;;-141.97;43.90;47490.25;5053345;28;20665;-81
2022/11/01 07:55:10;;;;;;;17.27;7.63;;;;;;;-141.97;44.17;47459.50;5054510;28;20195;-80
2022/11/01 07:57:39;;;;;;;14.33;7.57;;;;;;;-141.97;44.00;47515.22;5053528;28;20957;-80
2022/11/01 08:00:06;;;;;;;18.67;8.27;;;;;;;-141.97;43.17;47488.31;5053062;28;20201;-81
2022/11/01 08:02:31;;;;;;;15.97;7.40;;;;;;;-141.97;42.56;47472.94;5053600;28;20178;-80
2022/11/01 08:04:57;;;;;;;13.73;7.60;;;;;;;-141.97;41.92;47503.69;5054346;28;20182;-80
2022/11/01 08:07:22;;;;;;;14.43;7.63;;;;;;;-141.97;41.09;47530.59;5053157;28;20188;-80
2022/11/01 08:09:48;;;;;;;11.83;7.37;;;;;;;-141.97;41.69;47496.00;5054751;28;20264;-80
2022/11/01 08:12:13;;;;;;;14.60;7.43;;;;;;;-141.97;40.67;47471.03;5054240;28;20556;-80
2022/11/01 08:14:39;;;;;;;18.10;7.50;;;;;;;-141.97;40.92;47492.16;5061021;28;20188;-81
2022/11/01 08:17:04;;;;;;;18.20;9.63;;;;;;;-141.97;41.38;47496.00;5073698;28;20663;-81
2022/11/01 08:19:29;;;;;;;15.43;6.40;;;;;;;-141.97;41.48;47463.34;5077193;28;20262;-81
2022/11/01 08:21:58;;;;;;;13.57;6.30;;;;;;;-141.97;41.19;47486.41;5065069;28;20650;-79
2022/11/01 08:24:24;;;;;;;11.97;6.63;;;;;;;-141.97;41.55;47497.94;5072548;28;20226;-79
2022/11/01 08:27:01;;;;;;;10.97;5.97;;;;;;;-141.97;40.35;47496.00;5074554;28;20188;-79
2022/11/01 08:29:26;;;;;;;14.37;5.90;;;;;;;-141.97;39.52;47465.25;5073626;28;20248;-81
2022/11/01 08:31:52;;;;;;;12.73;6.10;;;;;;;-141.97;39.27;47476.78;5074762;28;20334;-80
2022/11/01 08:34:17;;;;;;;14.17;6.10;;;;;;;-141.97;38.64;47472.94;5076588;28;20223;-80
2022/11/01 08:36:43;;;;;;;11.97;5.83;;;;;;;-141.97;39.73;47480.63;5073813;28;20183;-81
2022/11/01 08:39:08;;;;;;;14.87;5.83;;;;;;;-141.97;39.78;47449.88;5057585;28;20664;-82
2022/11/01 08:41:34;;;;;;;13.07;5.80;;;;;;;-141.97;39.56;47434.50;5075805;28;20796;-80
2022/11/01 08:43:59;;;;;;;10.13;5.33;;;;;;;-141.97;39.06;47474.88;5075803;28;20180;-80
2022/11/01 08:46:25;;;;;;;10.63;5.37;;;;;;;-141.97;38.81;47492.16;5073402;28;20180;-77
2022/11/01 08:48:54;;;;;;;11.43;5.23;;;;;;;-141.97;38.55;47442.19;5073712;28;20184;-78
2022/11/01 08:51:24;;;;;;;11.47;5.50;;;;;;;-141.97;38.63;47507.53;5074846;28;20209;-80
2022/11/01 08:53:53;;;;;;;9.63;5.30;;;;;;;-141.97;37.95;47426.81;5074464;28;20217;-80
2022/11/01 08:56:20;;;;;;;15.13;5.70;;;;;;;-141.97;37.29;47451.81;5056929;28;20180;-79
2022/11/01 08:58:47;;;;;;;10.03;5.33;;;;;;;-141.97;37.05;47461.41;5074583;28;20191;-81
2022/11/01 09:01:13;;;;;;;10.20;5.57;;;;;;;-141.97;36.56;47461.41;5073977;28;20302;-80
2022/11/01 09:03:38;;;;;;;10.17;5.30;;;;;;;-141.97;36.99;47442.19;5075223;28;20268;-78
2022/11/01 09:06:04;;;;;;;13.30;5.90;;;;;;;-141.97;36.56;47478.72;5076280;28;20617;-79
2022/11/01 09:08:29;;;;;;;11.73;5.60;;;;;;;-141.97;36.57;47405.69;5076300;28;20185;-80
2022/11/01 09:10:58;;;;;;;12.30;5.60;;;;;;;-141.97;36.48;47426.81;5071726;28;20335;-79
2022/11/01 09:13:24;;;;;;;14.80;5.80;;;;;;;-141.97;36.30;47422.97;5071844;28;20184;-79
2022/11/01 09:15:49;;;;;;;14.63;5.80;;;;;;;-141.97;36.21;47424.91;5066040;28;20189;-79
2022/11/01 09:18:14;;;;;;;11.13;5.70;;;;;;;-141.97;36.40;47446.03;5052615;28;20238;-80
2022/11/01 09:20:40;;;;;;;17.93;6.00;;;;;;;-141.97;36.61;47467.19;5052964;28;20282;-79
2022/11/01 09:23:06;;;;;;;12.60;6.50;;;;;;;-141.97;35.86;47430.66;5044497;28;20232;-80
2022/11/01 09:25:31;;;;;;;12.00;5.87;;;;;;;-141.97;35.69;47430.66;5053698;28;20185;-80
2022/11/01 09:27:57;;;;;;;10.80;5.70;;;;;;;-141.97;35.13;47407.59;5052290;28;20177;-79
2022/11/01 09:30:23;;;;;;;14.10;5.80;;;;;;;-141.97;34.79;47401.84;5051432;28;20178;-79
2022/11/01 09:32:51;;;;;;;15.43;6.30;;;;;;;-141.97;35.13;47449.88;5051651;28;20209;-79
2022/11/01 09:35:17;;;;;;;12.93;6.60;;;;;;;-141.97;35.24;47421.06;5051214;28;20232;-80
2022/11/01 09:37:43;;;;;;;13.57;6.20;;;;;;;-141.97;35.14;47459.50;5050384;28;20190;-79
2022/11/01 09:40:09;;;;;;;11.27;6.43;;;;;;;-141.97;35.02;47403.75;5050910;28;20248;-80
2022/11/01 09:42:40;;;;;;;15.60;6.30;;;;;;;-141.97;34.56;47403.75;5033127;28;20197;-78
2022/11/01 09:45:14;;;;;;;11.13;6.10;;;;;;;-141.97;34.47;47463.34;5050841;28;20251;-78
2022/11/01 09:47:44;;;;;;;13.77;5.20;;;;;;;-141.97;34.60;47453.72;5050097;28;20917;-78
2022/11/01 09:50:23;;;;;;;12.23;5.23;;;;;;;-141.97;34.99;47426.81;5049308;28;20181;-79
2022/11/01 09:52:51;;;;;;;9.33;4.60;;;;;;;-141.97;34.53;47434.50;5050437;28;20250;-79
2022/11/01 09:55:25;;;;;;;11.10;5.57;;;;;;;-141.97;34.13;47428.75;5049022;28;20185;-79
2022/11/01 09:58:32;;;;;;;15.33;7.23;;;;;;;-141.97;34.47;47407.59;5053025;28;20173;-79
2022/11/01 10:01:10;;;;;;;10.80;5.87;;;;;;;-141.97;34.09;47436.44;4989284;28;20226;-78
2022/11/01 10:04:13;;;;;;;11.83;5.33;;;;;;;-141.97;34.13;47409.53;4989323;28;20198;-79
2022/11/01 10:06:45;;;;;;;12.63;5.63;;;;;;;-141.97;34.03;47421.06;4932036;29;20596;-82
2022/11/01 10:09:48;;;;;;;12.40;6.20;;;;;;;-141.97;34.01;47413.38;4931422;29;20634;-78
2022/11/01 10:12:49;;;;;;;8.60;5.03;;;;;;;-141.97;33.38;47388.38;4931488;29;20201;-80
2022/11/01 10:15:32;;;;;;;12.87;5.80;;;;;;;-141.97;33.70;47436.44;4930912;29;20867;-79
2022/11/01 10:18:18;;;;;;;11.70;5.73;;;;;;;-141.97;33.51;47438.34;4931226;29;20288;-79
2022/11/01 10:20:44;;;;;;;11.13;6.10;;;;;;;-141.97;33.43;47438.34;4930545;29;20267;-79
2022/11/01 10:23:15;;;;;;;14.30;6.30;;;;;;;-141.97;33.55;47424.91;4906109;29;20748;-79
2022/11/01 10:25:47;;;;;;;14.40;6.23;;;;;;;-141.97;33.38;47446.03;4930860;29;20288;-79
2022/11/01 10:28:43;;;;;;;18.50;6.60;;;;;;;-141.97;33.16;47446.03;4930060;29;20201;-79
2022/11/01 10:31:14;;;;;;;10.80;5.70;;;;;;;-141.97;33.20;47467.19;4911192;29;20198;-79
2022/11/01 10:33:52;;;;;;;11.97;6.10;;;;;;;-141.97;32.79;47590.19;4911648;29;20218;-79
2022/11/01 10:36:24;;;;;;;12.50;6.10;;;;;;;-141.97;32.59;47411.44;4911888;29;20247;-81
2022/11/01 10:38:56;;;;;;;10.68;6.63;;;;;;;-141.97;32.60;47446.03;4950447;28;20751;-77
2022/11/01 10:41:41;;;;;;;13.68;6.43;;;;;;;-141.97;32.77;47409.53;4951938;29;20221;-80
2022/11/01 10:44:14;;;;;;;21.20;6.20;;;;;;;-141.97;32.22;47428.75;5013316;28;20198;-81
2022/11/01 10:46:44;;;;;;;13.98;5.95;;;;;;;-141.97;32.43;47474.88;5032776;28;20182;-79
2022/11/01 10:49:27;;;;;;;14.23;5.97;;;;;;;-141.97;32.66;47382.63;5051413;28;21293;-80
2022/11/01 10:51:59;;;;;;;15.93;6.20;;;;;;;-141.97;32.18;47394.16;5051660;28;20564;-80
2022/11/01 10:54:28;;;;;;;12.05;5.93;;;;;;;-141.97;32.45;47380.69;5052074;28;20277;-81
2022/11/01 10:57:00;;;;;;;10.82;5.75;;;;;;;-141.97;32.92;47549.84;5052647;28;20181;-79
2022/11/01 10:59:34;;;;;;;14.23;5.80;;;;;;;-141.97;32.53;47388.38;5053655;28;20293;-80
2022/11/01 11:02:02;;;;;;;16.05;6.35;;;;;;;-141.97;32.36;47407.59;5052896;28;20187;-79
2022/11/01 11:04:28;;;;;;;14.18;6.05;;;;;;;-141.97;32.33;47444.13;5051886;28;20206;-80
2022/11/01 11:06:53;;;;;;;13.52;6.20;;;;;;;-141.97;32.45;47386.47;5054342;28;20174;-79
2022/11/01 11:09:28;;;;;;;11.70;5.72;;;;;;;-141.97;32.30;47405.69;5055978;28;20243;-82
2022/11/01 11:12:05;;;;;;;14.80;6.43;;;;;;;-141.97;32.09;47415.28;5054779;28;20223;-81
2022/11/01 11:14:32;;;;;;;14.25;5.85;;;;;;;-141.97;32.11;47426.81;5053375;28;20263;-80
2022/11/01 11:16:59;;;;;;;15.13;6.60;;;;;;;-141.97;32.54;47396.06;5068135;28;20278;-82
2022/11/01 11:19:27;;;;;;;13.73;6.03;;;;;;;-141.97;32.47;47426.81;5069741;28;20703;-81
2022/11/01 11:21:54;;;;;;;13.68;6.28;;;;;;;-141.97;32.85;47319.19;5044820;28;20933;-81
2022/11/01 11:24:20;;;;;;;16.60;6.70;;;;;;;-141.97;32.65;47396.06;5053608;28;20175;-81